ADDS METAR Data INFO
IDs: Format: Raw Decoded Include TAF

Data at: 0213 UTC 20 Sep 2017

KIAH 200153Z 18006KT 10SM FEW180 BKN250 28/23 A2989 RMK AO2 SLP121 T02830228
KIAH 200053Z 17008KT 10SM FEW036 SCT100 BKN250 29/23 A2987 RMK AO2 SLP115 T02890228
KIAH 192353Z 16011KT 10SM FEW038 SCT060 SCT090 BKN250 31/23 A2986 RMK AO2 SLP109 T03060228 10339 20306 55005
KIAH 192253Z 13014KT 10SM FEW039 SCT055 SCT075 BKN250 31/24 A2984 RMK AO2 SLP104 T03110239
KIAH 192153Z 12012KT 10SM SCT048 SCT065 SCT090 BKN250 32/25 A2985 RMK AO2 SLP108 T03170250
KIAH 192053Z 21005KT 10SM SCT046 BKN250 32/24 A2987 RMK AO2 SLP114 T03220239 56025
KIAH 191953Z 22006KT 10SM SCT042 BKN250 34/22 A2990 RMK AO2 SLP122 TCU DSNT NE-SE-SW T03390222
KIAH 191853Z 19007KT 10SM SCT038 BKN250 33/23 A2992 RMK AO2 LTG DSNT E SLP130 CB DSNT E MOV NE TCU DSNT SE T03330228
KIAH 191753Z 17008KT 10SM SCT033 BKN250 31/23 A2995 RMK AO2 SLP139 T03110233 10322 20233 58010
KIAH 191653Z 21005KT 10SM BKN030 BKN250 31/24 A2997 RMK AO2 SLP146 T03110239
KIAH 191553Z 19008KT 10SM SCT022 BKN250 30/24 A2997 RMK AO2 SLP150 T03000239
KIAH 191453Z 19008KT 10SM SCT015 BKN250 29/25 A2998 RMK AO2 SLP151 T02890250 53007
KIAH 191353Z 16004KT 7SM FEW010 FEW120 FEW250 27/26 A2997 RMK AO2 SLP149 T02720256
KIAH 191253Z 00000KT 7SM MIFG FEW010 FEW120 FEW250 24/24 A2996 RMK AO2 SLP143 T02440239
KIAH 191153Z 00000KT 6SM BR MIFG FEW120 SCT250 23/23 A2996 RMK AO2 SLP144 70042 T02330228 10244 20228 53006
KIAH 191053Z 00000KT 7SM FEW120 SCT250 24/23 A2995 RMK AO2 SLP141 T02390228
KIAH 190953Z 00000KT 10SM FEW007 SCT120 SCT250 24/23 A2994 RMK AO2 SLP138 T02440233
KIAH 190853Z 00000KT 10SM FEW007 SCT015 BKN120 BKN250 24/23 A2994 RMK AO2 SLP138 T02390233 50002
KIAH 190824Z 00000KT 10SM FEW007 FEW015 SCT120 BKN250 23/23 A2994 RMK AO2 T02330228
KIAH 190753Z 05006KT 10SM FEW020 SCT120 BKN250 23/22 A2994 RMK AO2 SLP139 T02330222
KIAH 190653Z 00000KT 10SM FEW120 BKN250 23/22 A2994 RMK AO2 SLP137 T02330222
KIAH 190553Z 00000KT 10SM FEW120 BKN250 24/23 A2993 RMK AO2 SLP135 60001 T02390228 10250 20228 403280228 57002
KIAH 190453Z 19003KT 10SM FEW150 BKN250 24/23 A2994 RMK AO2 SLP136 T02390228
KIAH 190353Z 12006KT 10SM FEW150 FEW190 BKN250 23/22 A2994 RMK AO2 SLP136 T02330222
KIAH 190253Z 12005KT 10SM FEW060 FEW150 SCT180 BKN250 23/22 A2994 RMK AO2 SLP138 60001 T02280222 58006
KIAH 190153Z 00000KT 10SM FEW030 SCT090 SCT150 BKN180 BKN250 23/22 A2996 RMK AO2 RAE29 SLP144 P0000 T02330222
KIAH 190053Z 00000KT 10SM -RA FEW025 SCT060 SCT110 BKN140 BKN180 BKN250 24/23 A2997 RMK AO2 TSE35 SLP148 LTG DSNT N SE-SW CB DSNT N SE-SW P0001 T02440233
KIAH 190040Z 00000KT 10SM -RA FEW025 SCT055 SCT080 BKN140 BKN180 BKN250 24/23 A2997 RMK AO2 LTG DSNT ALQDS TSE35 TS MOV SE CB DSNT ALQDS P0001 T02440228
KIAH 190027Z 18005KT 10SM -TSRA FEW025CB SCT055 SCT080 BKN140 BKN180 BKN250 24/23 A2996 RMK AO2 LTG DSNT ALQDS OCNL LTGCCCG SE-S TS SE-S MOV LTL P0001 T02440228
KIAH 182353Z 12007KT 10SM -TSRA FEW034CB SCT050 SCT075 BKN130 BKN180 BKN250 25/23 A2996 RMK AO2 LTG DSNT ALQDS SLP143 OCNL LTGCCCG E-S W-NW TS E-S W-NW MOV LTL P0000 60031 T02500233 10306 20244 53006
KIAH 182330Z 20005KT 10SM -TSRA FEW035CB SCT050 SCT070 BKN130 BKN180 BKN250 24/23 A2994 RMK AO2 OCNL LTGCCCG NE-W TS NE-W MOV N P0000 T02440228
KIAH 182253Z 18003KT 10SM -TSRA FEW035CB SCT050 SCT070 BKN130 BKN180 BKN250 25/23 A2996 RMK AO2 RAB33 SLP144 FRQ LTGCCCG E-NW TS E-NW MOV N P0000 T02500228
KIAH 182215Z 19009KT 10SM TS FEW033CB SCT050 BKN110 BKN180 BKN250 27/23 A2995 RMK AO2 PRESRR FRQ LTGCCCG SE-W TS SE-W MOV N T02720228
KIAH 182153Z 04009KT 10SM TS FEW035CB SCT050 BKN100 BKN180 BKN210 28/23 A2993 RMK AO2 TSE09B43 SLP135 FRQ LTGCCCG S-SW TS S-SW MOV N CB DSNT NW-N T02780233
KIAH 182144Z VRB05KT 10SM TS FEW035CB SCT050 BKN100 BKN180 BKN210 28/23 A2994 RMK AO2 TSE09B43 OCNL LTGCCCG S-SW TS S-SW MOV N CB DSNT NW-N T02780233
KIAH 182109Z VRB06KT 10SM FEW032 SCT046 BKN100 BKN180 BKN250 29/24 A2994 RMK AO2 TSE09 TS MOV N CB DSNT NW-N T02890239
KIAH 182053Z 01006KT 10SM TS FEW032 SCT045CB BKN100 BKN180 BKN250 28/24 A2994 RMK AO2 RAE12B34E53 SLP138 OCNL LTGCCCG W-N TS W-N MOV N P0001 60031 T02780239 58020
KIAH 181953Z 00000KT 7SM -TSRA FEW025 SCT035CB BKN100 BKN180 OVC250 27/24 A2997 RMK AO2 RAB24 SLP149 FRQ LTGCCCG NW-NE SE SW TS NW-NE SE SW MOV N P0002 T02720244
KIAH 181853Z 00000KT 10SM TS SCT030CB BKN120 BKN180 BKN250 30/25 A2998 RMK AO2 PK WND 24027/1804 RAB00E26 TSB00 SLP150 OCNL LTGCG SE-SW TS SE-SW MOV NE VCSH SE-SW CB SHRA DSNT N-NE MOV NE P0028 T03000250
KIAH 181820Z 29005KT 7SM -TSRA BKN030CB BKN110 BKN250 28/24 A2999 RMK AO2 PK WND 24027/1804 RAB00 TSB00 OCNL LTGICCCCG NW-E TS NW-E MOV NE P0028 T02780244
KIAH 181810Z 21007G27KT 1 1/2SM +TSRA BKN030CB BKN110 BKN250 27/24 A3000 RMK AO2 PK WND 24027/1804 RAB00 TSB00 OCNL LTGICCCCG ALQDS TS ALQDS MOV NE P0020 T02670239
KIAH 181800Z 22014G19KT 7SM -TSRA BKN030CB BKN110 BKN250 31/23 A3000 RMK AO2 RAB00 TSB00 OCNL LTGCCCG E-SE AND SW-NW TS E-SE AND SW-NW MOV NE P0000 T03060233
KIAH 181753Z 17008KT 7SM BKN030CB BKN120 BKN250 31/23 A3000 RMK AO2 SLP157 CB E-SW MOV NE VCSH E-SW CB SHRA DSNT W-NW MOV NE 60010 T03060233 10328 20239 58004
KIAH 181653Z 17005KT 10SM BKN030 BKN120 BKN250 31/24 A3001 RMK AO2 SLP159 CB DSNT ALQDS MOV NE T03110239
KIAH 181636Z VRB05KT 10SM BKN030 BKN120 BKN250 32/24 A3001 RMK AO2 CB DSNT ALQDS MOV NE T03220244
KIAH 181553Z 19006KT 10SM BKN024 BKN120 BKN250 32/24 A3002 RMK AO2 LTG DSNT E AND SE RAE02 SLP163 CB DSNT NE-SE MOV N TCU DSNT SW-NW P0000 T03170244
KIAH 181453Z 19004KT 10SM -RA BKN015TCU 30/26 A3001 RMK AO2 RAB37 SLP160 TCU OHD AND DSNT SE P0010 60010 T03000256 50005
KIAH 181424Z 17005KT 10SM BKN010 BKN015 BKN130 28/26 A3001 RMK AO2 TCU DSNT SE T02830256